Accueil
METAR-TAF:

METAR-TAF

Aéroports :

Aéroport international de Luang Prabang

Luang Prabang, Laos

latitude: 19-53N, longitude: 102-08E, altitude: 305 m

Observation

Le bulletin a été fait il y a 43 minutes, à 00:00 UTC
Vent calme
Température 16°C
Humidité 88%
Pression 1022 hPa
Visibilité: 7000 m
Quelques nuages à une hauteur de 2700 ft
Quelques nuages à une hauteur de 6000 ft

METAR: VLLB 220000Z 00000KT 7000 FEW027 FEW060 16/14 Q1022 NOSIG

Heure: 07:43 (00:43 UTC)

Prévision

Le bulletin a été fait il y a 1 heure et 43 minutes, à 23:00 UTC
Prévision valable du 22 à 00 UTC au 22 à 24 UTC
Vent 4 kt de est
Visibilité 10 km ou plus
Nuages épars à une hauteur de 2000 ft
Quelques nuages à une hauteur de 6000 ft

TAF: VLLB 212300Z 2200/2224 09004KT 9999 SCT020 FEW060

Observations et prévisions météorologiques de plus de 4000 aéroports (messages METAR et TAF).

Les stations disponibles sont représentées par des disques jaunes et rouges sur la carte.

Passer la souris dessus pour voir le nom de la station.

Cliquer dessus pour voir les observations et prévisions météorologiques.

Pour changer de carte: cliquez sur les boutons verts avec une croix noire pour zoomer, sur le bouton vert avec un tiret pour effectuer un zoom arrière, ou sur les flèches vertes pour les cartes adjacentes.


METAR-TAF: